createdAt,value
2022-08-28T00:03:38.194Z,18.43
2022-08-28T00:09:01.167Z,18.35
2022-08-28T00:14:25.291Z,18.31
2022-08-28T00:19:48.711Z,18.17
2022-08-28T00:25:12.661Z,18.02
2022-08-28T00:30:49.786Z,17.79
2022-08-28T00:36:13.734Z,17.48
2022-08-28T00:41:37.134Z,17.21
2022-08-28T00:47:05.176Z,17.19
2022-08-28T00:52:29.064Z,17.14
2022-08-28T00:58:07.354Z,17.03
2022-08-28T01:03:29.646Z,17.03
2022-08-28T01:08:54.665Z,17.03
2022-08-28T01:14:22.600Z,16.92
2022-08-28T01:19:54.683Z,16.86
2022-08-28T01:25:24.788Z,16.86
2022-08-28T01:36:58.537Z,16.68
2022-08-28T01:42:22.571Z,16.58
2022-08-28T01:47:45.427Z,16.64
2022-08-28T01:53:07.845Z,16.59
2022-08-28T01:58:37.429Z,16.56
2022-08-28T02:03:56.825Z,16.44
2022-08-28T02:09:20.261Z,16.48
2022-08-28T02:14:42.501Z,16.77
2022-08-28T02:20:04.936Z,16.96
2022-08-28T02:25:28.315Z,16.80
2022-08-28T02:30:51.111Z,16.69
2022-08-28T02:36:14.332Z,16.63
2022-08-28T02:41:36.582Z,16.59
2022-08-28T02:46:58.895Z,16.44
2022-08-28T02:52:22.668Z,16.39
2022-08-28T02:57:45.772Z,16.32
2022-08-28T03:03:08.502Z,16.47
2022-08-28T03:08:32.605Z,16.68
2022-08-28T03:13:56.084Z,16.76
2022-08-28T03:19:18.272Z,16.52
2022-08-28T03:24:41.621Z,16.38
2022-08-28T03:30:03.833Z,16.41
2022-08-28T03:35:27.110Z,16.39
2022-08-28T03:40:53.007Z,16.18
2022-08-28T03:46:23.867Z,16.13
2022-08-28T03:51:48.592Z,16.08
2022-08-28T03:57:11.406Z,16.11
2022-08-28T04:02:34.242Z,16.08
2022-08-28T04:07:56.613Z,16.23
2022-08-28T04:13:19.833Z,16.35
2022-08-28T04:18:43.396Z,16.25
2022-08-28T04:24:09.697Z,16.15
2022-08-28T04:29:32.169Z,16.17
2022-08-28T04:34:56.215Z,16.15
2022-08-28T04:40:20.048Z,16.17
2022-08-28T04:45:46.021Z,16.18
2022-08-28T04:51:10.508Z,16.18
2022-08-28T04:56:33.735Z,16.27
2022-08-28T05:01:56.149Z,16.30
2022-08-28T05:07:18.408Z,16.38
2022-08-28T05:12:44.089Z,16.62
2022-08-28T05:18:06.263Z,16.90
2022-08-28T05:23:29.401Z,17.19
2022-08-28T05:28:53.284Z,17.60
2022-08-28T05:34:16.548Z,18.01
2022-08-28T05:39:38.773Z,18.31
2022-08-28T05:45:01.731Z,18.49
2022-08-28T05:50:25.419Z,18.53
2022-08-28T05:55:51.648Z,18.52
2022-08-28T06:01:19.815Z,18.65
2022-08-28T06:06:44.301Z,18.92
2022-08-28T06:12:07.992Z,19.12
2022-08-28T06:17:31.457Z,19.25
2022-08-28T06:22:55.363Z,19.52
2022-08-28T06:28:18.489Z,19.86
2022-08-28T06:33:42.701Z,20.14
2022-08-28T06:39:05.453Z,20.49
2022-08-28T06:44:33.578Z,20.88
2022-08-28T06:49:56.606Z,21.22
2022-08-28T06:55:19.127Z,21.45
2022-08-28T07:00:42.533Z,21.70
2022-08-28T07:06:07.357Z,21.87
2022-08-28T07:11:37.357Z,21.95
2022-08-28T07:17:01.262Z,22.02
2022-08-28T07:22:23.477Z,22.23
2022-08-28T07:27:45.706Z,22.59
2022-08-28T07:33:07.912Z,22.90
2022-08-28T07:38:30.615Z,23.10
2022-08-28T07:44:10.783Z,23.30
2022-08-28T07:49:37.085Z,23.49
2022-08-28T07:54:59.445Z,23.70
2022-08-28T08:00:23.082Z,23.94
2022-08-28T08:05:45.347Z,24.16
2022-08-28T08:11:21.113Z,24.33
2022-08-28T08:16:47.956Z,24.48
2022-08-28T08:22:10.136Z,24.87
2022-08-28T08:27:33.516Z,25.19
2022-08-28T08:32:56.955Z,25.57
2022-08-28T08:38:21.190Z,25.69
2022-08-28T08:43:47.456Z,25.91
2022-08-28T08:49:12.660Z,26.12
2022-08-28T08:54:36.492Z,26.40
2022-08-28T08:59:59.356Z,26.64
2022-08-28T09:05:30.108Z,26.90
2022-08-28T09:11:01.059Z,27.17
2022-08-28T09:16:31.823Z,27.54
2022-08-28T09:21:57.587Z,27.65
2022-08-28T09:27:30.773Z,27.78
2022-08-28T09:33:05.347Z,27.74
2022-08-28T09:38:44.677Z,28.06
2022-08-28T09:44:06.927Z,28.38
2022-08-28T09:49:43.139Z,29.13
2022-08-28T09:55:07.860Z,30.45
2022-08-28T10:00:31.120Z,31.00
2022-08-28T10:06:06.747Z,31.05
2022-08-28T10:11:42.595Z,31.05
2022-08-28T10:17:12.418Z,29.44
2022-08-28T10:22:47.773Z,29.70
2022-08-28T10:28:37.124Z,30.03
2022-08-28T10:34:47.307Z,30.63
2022-08-28T10:40:25.547Z,29.87
2022-08-28T10:45:52.214Z,29.52
2022-08-28T10:51:35.460Z,29.44
2022-08-28T10:57:00.132Z,30.24
2022-08-28T11:02:26.612Z,30.80
2022-08-28T11:07:55.856Z,31.25
2022-08-28T11:13:19.823Z,31.86
2022-08-28T11:18:51.055Z,30.71
2022-08-28T11:30:36.662Z,30.53
2022-08-28T11:36:04.020Z,30.88
2022-08-28T11:42:06.381Z,31.16
2022-08-28T11:47:55.913Z,31.01
2022-08-28T11:53:20.927Z,31.02
2022-08-28T11:58:50.898Z,31.18
2022-08-28T12:04:17.813Z,31.12
2022-08-28T12:10:05.123Z,31.94
2022-08-28T12:15:43.300Z,31.44
2022-08-28T12:21:13.930Z,30.45
2022-08-28T12:26:41.680Z,30.03
2022-08-28T12:32:25.199Z,30.07
2022-08-28T12:38:03.720Z,29.49
2022-08-28T12:43:34.682Z,29.76
2022-08-28T12:49:16.741Z,29.24
2022-08-28T12:54:40.094Z,28.80
2022-08-28T13:00:07.861Z,28.85
2022-08-28T13:05:40.301Z,28.68
2022-08-28T13:11:14.219Z,28.23
2022-08-28T13:16:55.479Z,28.18
2022-08-28T13:22:40.614Z,28.30
2022-08-28T13:28:20.200Z,28.04
2022-08-28T13:33:44.244Z,27.65
2022-08-28T13:39:06.973Z,27.74
2022-08-28T13:44:42.692Z,27.63
2022-08-28T13:50:06.384Z,27.42
2022-08-28T13:55:38.756Z,27.36
2022-08-28T14:01:03.547Z,27.21
2022-08-28T14:06:31.823Z,27.11
2022-08-28T14:11:56.525Z,26.98
2022-08-28T14:17:21.960Z,26.93
2022-08-28T14:22:44.242Z,26.91
2022-08-28T14:28:06.425Z,26.75
2022-08-28T14:33:29.258Z,26.71
2022-08-28T14:38:54.711Z,26.75
2022-08-28T14:44:17.824Z,26.89
2022-08-28T14:49:41.096Z,27.03
2022-08-28T14:55:03.610Z,27.10
2022-08-28T15:00:26.888Z,27.42
2022-08-28T15:05:49.741Z,27.54
2022-08-28T15:16:52.727Z,27.33
2022-08-28T15:22:15.153Z,27.08
2022-08-28T15:27:39.855Z,27.16
2022-08-28T15:33:02.772Z,26.99
2022-08-28T15:38:25.550Z,26.91
2022-08-28T15:43:48.023Z,26.84
2022-08-28T15:49:12.798Z,26.53
2022-08-28T15:54:37.209Z,26.24
2022-08-28T16:00:00.354Z,26.04
2022-08-28T16:05:26.941Z,25.84
2022-08-28T16:10:50.139Z,25.57
2022-08-28T16:16:12.601Z,25.35
2022-08-28T16:21:35.249Z,25.19
2022-08-28T16:26:57.944Z,24.99
2022-08-28T16:32:20.373Z,24.89
2022-08-28T16:37:42.878Z,24.75
2022-08-28T16:43:07.441Z,24.56
2022-08-28T16:48:31.094Z,24.49
2022-08-28T16:53:53.922Z,24.27
2022-08-28T16:59:23.233Z,24.29
2022-08-28T17:04:44.910Z,24.20
2022-08-28T17:10:09.361Z,24.07
2022-08-28T17:15:31.767Z,23.95
2022-08-28T17:21:12.007Z,23.84
2022-08-28T17:26:35.221Z,23.77
2022-08-28T17:31:57.612Z,23.61
2022-08-28T17:37:21.194Z,23.56
2022-08-28T17:42:44.957Z,23.65
2022-08-28T17:48:07.891Z,23.54
2022-08-28T17:53:30.852Z,23.07
2022-08-28T17:58:53.147Z,22.70
2022-08-28T18:04:21.467Z,22.41
2022-08-28T18:09:40.919Z,21.74
2022-08-28T18:15:04.333Z,21.18
2022-08-28T18:20:28.162Z,20.62
2022-08-28T18:25:51.813Z,19.42
2022-08-28T18:31:14.388Z,18.78
2022-08-28T18:36:39.736Z,18.35
2022-08-28T18:42:01.964Z,18.10
2022-08-28T18:47:24.311Z,18.03
2022-08-28T18:52:46.844Z,18.03
2022-08-28T18:58:15.161Z,17.93
2022-08-28T19:03:35.299Z,18.01
2022-08-28T19:08:57.574Z,17.82
2022-08-28T19:14:20.449Z,17.64
2022-08-28T19:19:45.892Z,17.59
2022-08-28T19:25:17.203Z,17.66
2022-08-28T19:30:38.871Z,17.78
2022-08-28T19:36:01.776Z,17.94
2022-08-28T19:41:26.781Z,18.12
2022-08-28T19:46:50.566Z,18.24
2022-08-28T19:52:13.453Z,18.35
2022-08-28T19:57:35.766Z,18.42
2022-08-28T20:02:58.533Z,18.44
2022-08-28T20:08:21.601Z,18.42
2022-08-28T20:13:44.767Z,18.35
2022-08-28T20:19:08.249Z,18.26
2022-08-28T20:24:33.895Z,18.20
2022-08-28T20:29:56.940Z,18.11
2022-08-28T20:35:22.174Z,18.01
2022-08-28T20:40:44.817Z,17.87
2022-08-28T20:46:08.871Z,17.93
2022-08-28T20:51:48.911Z,17.86
2022-08-28T20:57:14.178Z,17.76
2022-08-28T21:02:39.839Z,17.69
2022-08-28T21:08:02.110Z,17.65
2022-08-28T21:13:25.558Z,17.59
2022-08-28T21:19:13.981Z,17.56
2022-08-28T21:24:15.015Z,17.55
2022-08-28T21:29:39.251Z,17.54
2022-08-28T21:35:02.561Z,17.55
2022-08-28T21:40:26.702Z,17.53
2022-08-28T21:45:49.103Z,17.53
2022-08-28T21:51:15.765Z,17.66
2022-08-28T21:56:40.090Z,17.58
2022-08-28T22:02:02.784Z,17.54
2022-08-28T22:07:26.023Z,17.55
2022-08-28T22:12:48.256Z,17.56
2022-08-28T22:18:10.916Z,17.52
2022-08-28T22:23:35.615Z,17.49
2022-08-28T22:28:58.004Z,17.47
2022-08-28T22:34:21.345Z,17.44
2022-08-28T22:39:44.321Z,17.39
2022-08-28T22:45:06.724Z,17.35
2022-08-28T22:50:30.134Z,17.33
2022-08-28T22:55:52.984Z,17.31
2022-08-28T23:01:20.023Z,17.30
2022-08-28T23:06:43.073Z,17.31
2022-08-28T23:12:05.329Z,17.31
2022-08-28T23:17:27.523Z,17.30
2022-08-28T23:22:56.414Z,17.26
2022-08-28T23:28:16.799Z,17.27
2022-08-28T23:33:39.429Z,17.30
2022-08-28T23:39:02.108Z,17.21
2022-08-28T23:44:25.717Z,17.18
2022-08-28T23:49:49.286Z,17.12
2022-08-28T23:55:12.882Z,17.02
